Time;durP1;ratioP1;P1;durP2;ratioP2;P2;SDS_P1;SDS_P2;PMS_P1;PMS_P2;Temp;Humidity;BMP_temperature;BMP_pressure;BME280_temperature;BME280_humidity;BME280_pressure;Samples;Min_cycle;Max_cycle;Signal;HPM_P1;HPM_P2
2022/05/14 00:00:24;;;;;;;9.78;4.45;;;;;;;14.77;56.46;98251.80;1712219;80;20946;-86
2022/05/14 00:02:52;;;;;;;;;;;;;;;14.73;56.58;98253.53;1709984;82;21041;-86
2022/05/14 00:05:19;;;;;;;12.35;4.80;;;;;;;14.65;56.54;98252.30;1717939;80;20188;-86
2022/05/14 00:07:47;;;;;;;9.48;4.47;;;;;;;14.55;56.61;98256.58;1713371;83;21328;-86
2022/05/14 00:10:13;;;;;;;8.23;4.22;;;;;;;14.53;56.85;98260.17;1739801;80;21081;-83
2022/05/14 00:15:23;;;;;;;11.57;4.03;;;;;;;14.45;56.52;98264.94;1741839;80;21008;-83
2022/05/14 00:17:49;;;;;;;7.28;3.85;;;;;;;14.40;56.67;98268.52;1732342;81;21686;-83
2022/05/14 00:20:15;;;;;;;4.95;3.62;;;;;;;14.36;56.50;98270.23;1716479;82;21261;-83
2022/05/14 00:22:42;;;;;;;8.93;4.00;;;;;;;14.28;57.25;98270.91;1723459;82;21025;-83
2022/05/14 00:25:09;;;;;;;6.92;4.17;;;;;;;14.18;57.23;98275.14;1734069;80;20981;-82
2022/05/14 00:27:43;;;;;;;10.88;3.67;;;;;;;14.06;57.59;98281.61;1732028;82;21005;-86
2022/05/14 00:30:10;;;;;;;5.78;3.75;;;;;;;13.96;57.87;98277.13;1735883;80;21025;-83
2022/05/14 00:32:37;;;;;;;10.32;3.70;;;;;;;13.89;58.09;98271.23;1743082;81;21245;-82
2022/05/14 00:35:05;;;;;;;10.05;3.90;;;;;;;13.88;58.53;98272.90;1728682;80;21027;-86
2022/05/14 00:37:30;;;;;;;7.75;4.00;;;;;;;13.84;58.51;98275.38;1728341;80;21066;-83
2022/05/14 00:39:56;;;;;;;17.23;5.62;;;;;;;13.79;58.47;98268.11;1739793;80;20921;-86
2022/05/14 00:42:22;;;;;;;7.70;4.00;;;;;;;13.74;60.02;98270.89;1732389;81;20987;-83
2022/05/14 00:44:48;;;;;;;5.70;4.30;;;;;;;13.60;59.91;98275.47;1721331;80;21517;-85
2022/05/14 00:47:15;;;;;;;8.10;3.77;;;;;;;13.54;60.15;98277.44;1732864;80;20957;-85
2022/05/14 00:49:41;;;;;;;6.00;4.35;;;;;;;13.53;61.26;98281.27;1726899;82;21041;-86
2022/05/14 00:52:13;;;;;;;10.68;4.20;;;;;;;13.37;61.53;98289.91;1710892;82;20876;-83
2022/05/14 00:54:44;;;;;;;10.78;4.78;;;;;;;13.28;61.12;98284.86;1711762;80;21489;-86
2022/05/14 00:57:12;;;;;;;8.10;4.30;;;;;;;13.25;61.74;98284.34;1713452;83;21714;-83
2022/05/14 00:59:38;;;;;;;8.08;4.15;;;;;;;13.14;62.14;98288.23;1721227;80;20999;-86
2022/05/14 01:02:07;;;;;;;9.15;4.37;;;;;;;13.07;63.56;98282.88;1732035;80;20942;-84
2022/05/14 01:04:33;;;;;;;6.08;4.28;;;;;;;12.94;63.44;98282.48;1733773;82;21012;-83
2022/05/14 01:07:08;;;;;;;10.55;4.33;;;;;;;12.92;63.43;98280.61;1711493;82;20883;-85
2022/05/14 01:09:35;;;;;;;11.70;4.47;;;;;;;12.87;63.40;98288.80;1731533;80;21680;-83
2022/05/14 01:12:01;;;;;;;9.05;4.80;;;;;;;12.85;64.85;98280.68;1742996;81;21442;-85
2022/05/14 01:14:28;;;;;;;13.58;4.10;;;;;;;12.81;63.95;98276.34;1738979;80;20970;-82
2022/05/14 01:16:54;;;;;;;11.50;4.42;;;;;;;12.71;63.54;98273.19;1746608;81;20996;-85
2022/05/14 01:19:19;;;;;;;8.80;4.95;;;;;;;12.59;66.17;98276.05;1722118;80;20986;-85
2022/05/14 01:22:06;;;;;;;7.83;5.70;;;;;;;12.50;66.01;98284.56;1718881;82;21732;-83
2022/05/14 01:27:28;;;;;;;9.18;4.75;;;;;;;12.33;66.50;98278.98;1727215;82;21017;-85
2022/05/14 01:29:54;;;;;;;6.42;4.65;;;;;;;12.23;66.39;98286.42;1725586;80;20962;-83
2022/05/14 01:32:20;;;;;;;12.13;5.97;;;;;;;12.12;69.93;98290.55;1728493;80;20892;-85
2022/05/14 01:34:46;;;;;;;8.35;5.10;;;;;;;12.00;69.49;98286.03;1738871;80;21021;-85
2022/05/14 01:37:12;;;;;;;7.53;4.85;;;;;;;11.95;67.69;98288.77;1743657;81;21475;-86
2022/05/14 01:39:38;;;;;;;9.33;5.15;;;;;;;11.87;67.52;98290.72;1724470;80;20974;-82
2022/05/14 01:42:05;;;;;;;7.40;6.12;;;;;;;11.77;69.19;98286.13;1711235;82;22348;-85
2022/05/14 01:44:31;;;;;;;11.93;5.42;;;;;;;11.69;67.62;98294.87;1722327;80;21369;-82
2022/05/14 01:46:56;;;;;;;8.70;4.87;;;;;;;11.61;67.66;98298.16;1743285;81;22032;-85
2022/05/14 01:49:22;;;;;;;9.68;5.80;;;;;;;11.50;68.06;98294.70;1743362;82;20858;-83
2022/05/14 01:51:48;;;;;;;8.88;5.35;;;;;;;11.38;68.49;98299.66;1743155;81;20957;-86
2022/05/14 01:54:14;;;;;;;8.43;5.58;;;;;;;11.29;68.77;98298.06;1743306;81;20882;-82
2022/05/14 01:56:40;;;;;;;10.05;6.10;;;;;;;11.19;69.03;98300.78;1740278;82;20945;-82
2022/05/14 01:59:06;;;;;;;8.28;5.45;;;;;;;11.11;73.14;98302.73;1719157;80;21224;-81
2022/05/14 02:01:34;;;;;;;8.45;5.37;;;;;;;11.06;70.26;98301.39;1743000;81;21579;-85
2022/05/14 02:04:07;;;;;;;12.15;5.78;;;;;;;11.03;69.80;98304.66;1718144;82;21474;-86
2022/05/14 02:06:33;;;;;;;9.50;5.72;;;;;;;10.98;74.49;98301.41;1703026;82;20999;-84
2022/05/14 02:08:59;;;;;;;10.00;5.72;;;;;;;10.95;72.17;98301.97;1709710;80;21015;-86
2022/05/14 02:11:25;;;;;;;7.65;5.83;;;;;;;10.87;74.38;98297.65;1728572;81;21179;-83
2022/05/14 02:13:52;;;;;;;7.58;5.90;;;;;;;10.81;71.57;98312.29;1733526;80;21029;-82
2022/05/14 02:16:18;;;;;;;8.98;6.25;;;;;;;10.68;75.40;98313.64;1702907;83;21029;-85
2022/05/14 02:18:44;;;;;;;7.22;5.67;;;;;;;10.64;74.67;98310.69;1731135;80;21022;-82
2022/05/14 02:21:10;;;;;;;11.15;6.22;;;;;;;10.60;75.15;98311.52;1719174;83;21035;-85
2022/05/14 02:23:38;;;;;;;9.40;5.55;;;;;;;10.57;73.42;98314.20;1736663;80;21239;-85
2022/05/14 02:26:10;;;;;;;7.53;6.00;;;;;;;10.50;72.51;98318.27;1744941;82;21461;-85
2022/05/14 02:28:36;;;;;;;8.63;5.87;;;;;;;10.26;77.78;98319.38;1721442;82;21905;-85
2022/05/14 02:31:02;;;;;;;10.23;5.58;;;;;;;10.26;77.78;98319.38;1713594;82;21022;-85
2022/05/14 02:33:29;;;;;;;10.82;6.62;;;;;;;10.23;75.17;98321.25;1727840;80;20972;-85
2022/05/14 02:35:56;;;;;;;10.20;6.25;;;;;;;10.14;77.55;98318.23;1746509;82;21786;-83
2022/05/14 02:38:22;;;;;;;9.73;5.58;;;;;;;10.12;76.39;98313.64;1742979;81;21442;-85
2022/05/14 02:40:48;;;;;;;11.80;7.28;;;;;;;10.01;74.56;98316.07;1743320;82;21161;-85
2022/05/14 02:43:14;;;;;;;12.37;7.08;;;;;;;9.86;75.59;98314.95;1743239;81;20902;-83
2022/05/14 02:45:40;;;;;;;11.93;6.28;;;;;;;9.79;77.15;98320.34;1743417;82;20972;-85
2022/05/14 02:48:11;;;;;;;11.40;6.80;;;;;;;9.74;79.17;98321.16;1743034;81;21771;-82
2022/05/14 02:50:37;;;;;;;14.80;6.12;;;;;;;9.70;78.06;98321.41;1721823;82;21004;-85
2022/05/14 02:53:03;;;;;;;9.13;5.85;;;;;;;9.66;79.77;98324.39;1743052;81;21111;-82
2022/05/14 02:55:30;;;;;;;7.67;5.92;;;;;;;9.64;78.82;98324.36;1726672;82;21041;-85
2022/05/14 02:57:56;;;;;;;12.05;7.83;;;;;;;9.55;80.06;98320.81;1707309;82;21034;-85
2022/05/14 03:00:22;;;;;;;12.73;7.47;;;;;;;9.43;81.07;98322.94;1727272;80;21143;-85
2022/05/14 03:02:48;;;;;;;8.68;6.10;;;;;;;9.37;80.87;98326.70;1720392;81;21014;-85
2022/05/14 03:05:16;;;;;;;9.80;6.17;;;;;;;9.33;80.85;98325.07;1718059;80;21675;-85
2022/05/14 03:07:42;;;;;;;15.67;6.93;;;;;;;9.32;80.67;98328.86;1728475;82;20990;-85
2022/05/14 03:10:08;;;;;;;12.75;6.87;;;;;;;9.32;79.08;98328.05;1743268;82;21563;-82
2022/05/14 03:12:34;;;;;;;8.15;6.62;;;;;;;9.32;79.42;98332.10;1743158;81;21225;-85
2022/05/14 03:15:05;;;;;;;10.93;6.92;;;;;;;9.33;80.88;98328.31;1743210;82;21009;-85
2022/05/14 03:17:34;;;;;;;11.63;7.58;;;;;;;9.33;82.17;98332.37;1739801;81;21005;-85
2022/05/14 03:19:59;;;;;;;13.45;7.62;;;;;;;9.35;81.37;98333.45;1725077;80;21419;-85
2022/05/14 03:22:25;;;;;;;10.78;7.47;;;;;;;9.36;81.64;98333.19;1727965;82;21502;-85
2022/05/14 03:24:52;;;;;;;14.25;7.83;;;;;;;9.37;80.41;98340.22;1729038;80;21137;-85
2022/05/14 03:27:17;;;;;;;13.03;8.53;;;;;;;9.40;80.24;98347.83;1735739;82;21438;-82
2022/05/14 03:29:43;;;;;;;13.05;8.13;;;;;;;9.43;82.03;98347.83;1733862;80;20901;-85
2022/05/14 03:32:09;;;;;;;13.43;7.50;;;;;;;9.46;80.75;98352.16;1735022;81;20891;-82
2022/05/14 03:34:36;;;;;;;11.05;7.22;;;;;;;9.46;82.22;98349.45;1722522;80;20978;-85
2022/05/14 03:37:03;;;;;;;11.93;8.15;;;;;;;9.51;80.06;98354.90;1724894;81;21474;-82
2022/05/14 03:39:29;;;;;;;13.13;8.43;;;;;;;9.55;81.28;98349.76;1722588;80;21010;-85
2022/05/14 03:41:55;;;;;;;16.15;9.63;;;;;;;9.58;83.23;98354.66;1728255;80;21573;-85
2022/05/14 03:44:21;;;;;;;20.25;9.68;;;;;;;9.62;83.68;98361.16;1721552;80;20859;-85
2022/05/14 03:46:47;;;;;;;14.15;8.33;;;;;;;9.64;84.36;98357.63;1714778;80;20950;-82
2022/05/14 03:49:13;;;;;;;12.07;8.40;;;;;;;9.61;83.84;98354.93;1723872;80;21138;-81
2022/05/14 03:51:39;;;;;;;11.38;7.70;;;;;;;9.58;83.09;98358.17;1715314;80;20883;-85
2022/05/14 03:54:05;;;;;;;15.63;8.80;;;;;;;9.63;82.25;98357.91;1743331;82;20894;-85
2022/05/14 03:56:32;;;;;;;13.83;8.23;;;;;;;9.71;80.93;98361.45;1713665;82;21048;-85
2022/05/14 03:58:58;;;;;;;12.68;8.38;;;;;;;9.80;79.84;98352.55;1711688;80;21033;-85
2022/05/14 04:01:24;;;;;;;15.75;8.10;;;;;;;9.84;79.29;98356.91;1728472;81;21041;-82
2022/05/14 04:03:49;;;;;;;14.70;9.65;;;;;;;9.88;80.51;98352.58;1720989;80;20885;-85
2022/05/14 04:06:15;;;;;;;12.37;8.18;;;;;;;9.91;83.16;98347.97;1713340;83;21673;-82
2022/05/14 04:08:42;;;;;;;8.93;7.35;;;;;;;9.98;83.00;98349.08;1710376;80;20959;-82
2022/05/14 04:11:08;;;;;;;9.35;7.78;;;;;;;10.15;81.30;98351.00;1728389;82;21055;-85
2022/05/14 04:13:33;;;;;;;14.73;8.30;;;;;;;10.24;80.47;98345.89;1721441;80;21155;-82
2022/05/14 04:15:59;;;;;;;10.95;8.30;;;;;;;10.32;79.25;98352.95;1743190;82;20938;-82
2022/05/14 04:18:25;;;;;;;12.18;8.15;;;;;;;10.34;78.90;98352.16;1728639;80;20903;-82
2022/05/14 04:20:55;;;;;;;12.80;8.48;;;;;;;10.38;79.01;98347.81;1735677;82;20878;-82
2022/05/14 04:23:22;;;;;;;8.95;7.37;;;;;;;10.45;78.95;98354.33;1713767;80;21003;-82
2022/05/14 04:25:50;;;;;;;13.22;9.00;;;;;;;10.62;78.62;98353.52;1736807;82;21192;-85
2022/05/14 04:28:17;;;;;;;15.15;9.00;;;;;;;10.70;80.01;98355.67;1715730;80;21071;-82
2022/05/14 04:30:43;;;;;;;12.90;7.90;;;;;;;10.85;79.60;98352.66;1728581;80;21486;-82
2022/05/14 04:33:10;;;;;;;13.85;7.40;;;;;;;11.04;79.15;98362.41;1728787;80;21066;-85
2022/05/14 04:35:36;;;;;;;12.07;8.28;;;;;;;11.23;78.03;98366.16;1743238;82;21020;-82
2022/05/14 04:38:01;;;;;;;9.35;6.80;;;;;;;11.31;78.04;98368.31;1724405;81;21245;-85
2022/05/14 04:40:27;;;;;;;13.70;8.48;;;;;;;11.43;77.21;98365.28;1741683;80;21602;-82
2022/05/14 04:42:53;;;;;;;9.83;7.50;;;;;;;11.51;76.54;98370.14;1743199;81;20989;-85
2022/05/14 04:45:19;;;;;;;13.03;8.30;;;;;;;11.62;76.66;98373.06;1743334;82;21060;-82
2022/05/14 04:47:45;;;;;;;10.65;7.70;;;;;;;11.73;76.83;98370.60;1743168;81;20985;-82
2022/05/14 04:50:12;;;;;;;12.07;7.78;;;;;;;11.79;76.93;98371.37;1743273;82;21329;-85
2022/05/14 04:52:37;;;;;;;15.38;8.25;;;;;;;11.90;76.34;98374.36;1721717;82;21041;-85
2022/05/14 04:55:04;;;;;;;13.95;9.30;;;;;;;11.99;76.59;98372.67;1722609;82;21119;-85
2022/05/14 04:57:30;;;;;;;13.88;7.53;;;;;;;12.13;75.87;98370.97;1713344;83;21054;-82
2022/05/14 04:59:56;;;;;;;11.97;8.70;;;;;;;12.17;75.70;98375.28;1734538;80;21036;-82
2022/05/14 05:05:08;;;;;;;15.15;9.28;;;;;;;12.27;74.68;98376.57;1726745;82;21009;-82
2022/05/14 05:07:34;;;;;;;12.85;8.70;;;;;;;12.24;74.86;98377.69;1708773;82;21020;-85
2022/05/14 05:09:59;;;;;;;13.93;8.95;;;;;;;12.32;74.39;98376.55;1721344;80;20863;-82
2022/05/14 05:12:25;;;;;;;14.60;9.68;;;;;;;12.52;73.91;98385.64;1733925;80;21043;-83
2022/05/14 05:14:51;;;;;;;21.12;18.85;;;;;;;12.56;73.99;98385.33;1743106;82;21897;-83
2022/05/14 05:17:17;;;;;;;19.15;14.98;;;;;;;12.67;73.84;98382.81;1733847;81;20851;-82
2022/05/14 05:19:43;;;;;;;21.95;11.97;;;;;;;12.83;73.29;98379.42;1739954;80;20999;-82
2022/05/14 05:22:09;;;;;;;14.58;11.25;;;;;;;12.99;72.91;98376.83;1710823;82;20844;-86
2022/05/14 05:24:35;;;;;;;11.18;9.18;;;;;;;13.12;72.39;98372.06;1717968;80;20901;-85
2022/05/14 05:27:01;;;;;;;9.75;8.15;;;;;;;13.29;72.12;98382.53;1736845;82;21256;-82
2022/05/14 05:29:27;;;;;;;11.90;7.97;;;;;;;13.47;71.74;98378.25;1726703;80;21017;-81
2022/05/14 05:31:53;;;;;;;11.00;7.90;;;;;;;13.61;71.37;98380.55;1717310;82;20962;-85
2022/05/14 05:34:19;;;;;;;13.72;8.95;;;;;;;13.70;70.26;98383.44;1717968;80;20856;-85
2022/05/14 05:36:44;;;;;;;12.58;7.25;;;;;;;13.81;70.46;98383.02;1729729;80;20979;-85
2022/05/14 05:39:10;;;;;;;14.18;7.90;;;;;;;13.93;70.13;98387.22;1743350;82;21745;-85
2022/05/14 05:41:36;;;;;;;16.62;11.75;;;;;;;14.01;69.35;98390.66;1743068;81;20894;-82
2022/05/14 05:44:03;;;;;;;35.40;26.07;;;;;;;14.09;68.83;98390.00;1734882;82;21454;-86
2022/05/14 05:46:33;;;;;;;29.70;18.77;;;;;;;14.01;68.13;98392.02;1713474;82;21031;-85
2022/05/14 05:48:59;;;;;;;23.85;16.10;;;;;;;14.09;68.26;98387.27;1712024;81;21468;-85
2022/05/14 05:51:25;;;;;;;16.35;9.55;;;;;;;14.29;68.16;98383.47;1743204;81;21951;-85
2022/05/14 05:56:51;;;;;;;11.73;7.40;;;;;;;14.65;66.73;98376.95;1712985;82;21396;-85
2022/05/14 05:59:16;;;;;;;10.13;6.20;;;;;;;14.78;66.51;98376.17;1733583;80;21046;-82
2022/05/14 06:01:43;;;;;;;8.38;4.28;;;;;;;14.95;66.78;98375.09;1728476;81;22146;-85
2022/05/14 06:04:09;;;;;;;7.10;4.42;;;;;;;15.23;66.17;98375.14;1723692;80;21240;-86
2022/05/14 06:06:36;;;;;;;11.93;6.20;;;;;;;15.51;64.32;98375.95;1703728;80;21026;-83
2022/05/14 06:09:02;;;;;;;15.43;6.97;;;;;;;15.61;62.63;98371.69;1733233;80;21013;-82
2022/05/14 06:11:30;;;;;;;12.45;7.37;;;;;;;15.92;62.78;98367.78;1743101;81;21538;-82
2022/05/14 06:13:56;;;;;;;7.92;6.03;;;;;;;16.09;59.08;98364.41;1732540;82;21042;-83
2022/05/14 06:16:22;;;;;;;9.33;6.12;;;;;;;16.26;57.75;98362.39;1703194;84;21263;-82
2022/05/14 06:18:48;;;;;;;8.85;5.58;;;;;;;16.48;57.57;98362.96;1726985;80;21009;-86
2022/05/14 06:21:13;;;;;;;9.93;5.55;;;;;;;16.60;56.74;98366.77;1703292;84;20895;-83
2022/05/14 06:23:39;;;;;;;6.30;3.98;;;;;;;16.64;56.42;98367.76;1723870;80;20899;-86
2022/05/14 06:26:05;;;;;;;10.35;3.62;;;;;;;16.79;55.31;98372.08;1740695;82;20965;-86
2022/05/14 06:28:31;;;;;;;8.30;3.72;;;;;;;16.84;52.40;98368.42;1719200;80;21038;-83
2022/05/14 06:30:57;;;;;;;9.15;3.25;;;;;;;16.94;52.62;98361.88;1728794;82;20927;-86
2022/05/14 06:33:25;;;;;;;9.43;3.85;;;;;;;17.02;49.89;98361.13;1739605;80;21103;-86
2022/05/14 06:35:51;;;;;;;7.62;2.90;;;;;;;17.02;50.40;98355.09;1743321;82;21017;-86
2022/05/14 06:38:17;;;;;;;11.28;3.70;;;;;;;17.00;48.42;98354.58;1742744;81;20893;-86
2022/05/14 06:40:43;;;;;;;6.97;3.15;;;;;;;17.19;48.78;98344.80;1728104;80;22010;-83
2022/05/14 06:43:09;;;;;;;14.25;4.47;;;;;;;17.16;47.42;98346.20;1738374;81;20842;-82
2022/05/14 06:45:35;;;;;;;6.53;3.58;;;;;;;17.21;46.56;98338.44;1775232;80;20964;-86
2022/05/14 06:48:01;;;;;;;7.03;3.35;;;;;;;17.04;47.53;98339.72;1738214;80;20881;-83
2022/05/14 06:50:27;;;;;;;6.70;3.35;;;;;;;17.44;48.00;98341.92;1715078;80;20880;-83
2022/05/14 06:52:57;;;;;;;6.47;3.05;;;;;;;17.56;46.87;98341.31;1730259;80;22422;-86
2022/05/14 06:55:24;;;;;;;4.78;2.50;;;;;;;17.76;47.79;98348.96;1727960;80;21029;-86
2022/05/14 06:57:50;;;;;;;5.95;2.80;;;;;;;17.98;47.31;98350.80;1741834;82;20985;-83
2022/05/14 07:00:17;;;;;;;8.78;2.65;;;;;;;18.25;45.99;98349.70;1707325;82;21022;-86
2022/05/14 07:02:43;;;;;;;4.33;2.30;;;;;;;18.63;46.68;98351.78;1706098;82;21020;-82
2022/05/14 07:07:54;;;;;;;5.42;1.98;;;;;;;18.23;42.87;98347.28;1712611;82;21002;-86
2022/05/14 07:10:20;;;;;;;7.65;3.12;;;;;;;18.94;45.92;98350.24;1721386;80;20929;-86
2022/05/14 07:12:46;;;;;;;8.93;2.72;;;;;;;19.23;45.21;98347.59;1705119;82;21576;-86
2022/05/14 07:15:12;;;;;;;8.33;2.83;;;;;;;18.99;42.84;98352.27;1737793;80;21061;-83
2022/05/14 07:17:39;;;;;;;7.00;2.47;;;;;;;18.92;43.87;98347.02;1731429;81;21012;-83
2022/05/14 07:20:06;;;;;;;10.95;4.47;;;;;;;19.24;44.17;98344.28;1719866;82;21008;-83
2022/05/14 07:22:32;;;;;;;5.95;2.60;;;;;;;19.41;41.60;98347.77;1743054;81;20986;-87
2022/05/14 07:24:58;;;;;;;7.37;2.35;;;;;;;19.68;41.04;98345.73;1730235;82;20983;-87
2022/05/14 07:27:24;;;;;;;4.65;2.90;;;;;;;19.80;41.68;98341.69;1710265;82;20980;-87
2022/05/14 07:29:50;;;;;;;5.90;2.85;;;;;;;20.22;41.29;98345.88;1712960;80;21864;-84
2022/05/14 07:32:18;;;;;;;5.87;2.50;;;;;;;20.27;39.35;98351.99;1717974;80;20999;-83
2022/05/14 07:34:44;;;;;;;9.68;2.67;;;;;;;20.47;39.75;98344.89;1718889;80;21455;-87
2022/05/14 07:37:27;;;;;;;7.33;2.55;;;;;;;21.19;40.57;98343.29;1710555;82;21066;-87
2022/05/14 07:40:00;;;;;;;10.58;2.75;;;;;;;21.37;39.19;98344.75;1682544;82;21002;-84
2022/05/14 07:42:33;;;;;;;7.00;2.40;;;;;;;20.93;37.60;98349.88;1658588;84;21170;-83
2022/05/14 07:45:00;;;;;;;5.55;2.58;;;;;;;21.69;36.95;98343.83;1741956;82;21406;-87
2022/05/14 07:47:27;;;;;;;6.12;2.62;;;;;;;22.09;36.06;98350.62;1731317;81;33422;-83
2022/05/14 07:49:53;;;;;;;6.75;2.45;;;;;;;21.96;35.81;98352.55;1718433;80;21044;-83
2022/05/14 07:52:19;;;;;;;8.03;2.70;;;;;;;22.36;35.10;98351.25;1723266;82;20854;-83
2022/05/14 07:54:46;;;;;;;9.78;2.50;;;;;;;22.96;34.91;98359.11;1735246;82;21492;-88
2022/05/14 07:57:11;;;;;;;5.65;1.92;;;;;;;22.86;35.51;98356.06;1713194;82;21559;-84
2022/05/14 07:59:38;;;;;;;8.05;2.40;;;;;;;23.03;34.66;98353.78;1723921;80;20895;-84
2022/05/14 08:02:09;;;;;;;4.15;2.33;;;;;;;21.83;35.79;98353.15;1736335;82;21428;-87
2022/05/14 08:04:36;;;;;;;15.35;4.78;;;;;;;22.54;33.39;98357.30;1719466;80;21048;-84
2022/05/14 08:07:03;;;;;;;5.65;1.85;;;;;;;22.42;35.20;98358.14;1713029;82;21155;-87
2022/05/14 08:09:30;;;;;;;5.70;2.10;;;;;;;22.64;34.07;98360.94;1726609;82;21017;-87
2022/05/14 08:11:58;;;;;;;7.53;2.33;;;;;;;23.45;34.14;98360.79;1725077;82;21512;-84
2022/05/14 08:14:25;;;;;;;5.60;1.95;;;;;;;23.62;33.47;98370.14;1732148;82;21457;-88
2022/05/14 08:16:51;;;;;;;9.78;1.92;;;;;;;22.48;33.44;98362.86;1727719;82;22291;-84
2022/05/14 08:19:17;;;;;;;8.80;2.27;;;;;;;21.23;35.29;98365.70;1732127;80;22265;-87
2022/05/14 08:24:30;;;;;;;6.10;2.30;;;;;;;20.06;38.40;98359.41;1729111;80;21009;-87
2022/05/14 08:27:03;;;;;;;5.15;2.08;;;;;;;21.32;37.05;98357.37;1740976;82;21126;-83
2022/05/14 08:29:29;;;;;;;11.75;2.00;;;;;;;22.02;35.00;98356.69;1725993;80;21106;-87
2022/05/14 08:31:55;;;;;;;7.22;2.08;;;;;;;22.69;33.88;98357.13;1743237;81;20993;-88
2022/05/14 08:34:21;;;;;;;6.22;2.30;;;;;;;22.98;32.74;98351.27;1728827;81;21509;-87
2022/05/14 08:36:47;;;;;;;13.88;3.12;;;;;;;22.70;33.20;98348.49;1716730;80;21005;-83
2022/05/14 08:39:13;;;;;;;11.93;2.00;;;;;;;24.22;33.36;98342.29;1743152;82;20877;-87
2022/05/14 08:41:42;;;;;;;8.48;2.08;;;;;;;25.00;32.11;98342.54;1742811;81;21085;-85
2022/05/14 08:44:11;;;;;;;7.67;4.65;;;;;;;25.99;30.34;98339.34;1743139;82;21754;-84
2022/05/14 08:46:40;;;;;;;5.92;1.87;;;;;;;26.28;28.31;98344.70;1742853;81;21056;-88
2022/05/14 08:49:11;;;;;;;4.53;2.00;;;;;;;25.70;29.58;98338.05;1742213;82;21032;-84
2022/05/14 08:51:40;;;;;;;5.70;1.80;;;;;;;25.59;29.34;98335.11;1742284;81;21073;-84
2022/05/14 08:54:06;;;;;;;3.87;1.57;;;;;;;25.62;29.07;98338.30;1742885;82;21001;-85
2022/05/14 08:57:01;;;;;;;5.72;1.80;;;;;;;22.62;32.63;98334.25;1713642;82;21129;-87
2022/05/14 08:59:42;;;;;;;5.42;2.05;;;;;;;22.68;32.59;98340.34;1728150;80;21068;-87
2022/05/14 09:02:22;;;;;;;5.92;2.12;;;;;;;23.14;31.97;98336.67;1733720;82;21080;-85
2022/05/14 09:04:50;;;;;;;6.05;2.60;;;;;;;24.60;30.02;98331.26;1730779;82;21564;-88
2022/05/14 09:07:16;;;;;;;3.17;1.60;;;;;;;24.83;29.04;98320.83;1710331;82;21486;-84
2022/05/14 09:09:55;;;;;;;3.22;1.30;;;;;;;25.05;29.15;98322.08;1719794;80;21154;-85
2022/05/14 09:12:28;;;;;;;3.95;1.80;;;;;;;26.49;26.55;98323.95;1728377;80;21003;-84
2022/05/14 09:14:58;;;;;;;5.25;2.15;;;;;;;27.78;26.70;98311.62;1728464;80;21542;-88
2022/05/14 09:17:27;;;;;;;4.78;2.10;;;;;;;26.85;25.92;98314.88;1724408;81;21007;-84
2022/05/14 09:19:53;;;;;;;11.70;2.17;;;;;;;26.46;26.62;98304.69;1730282;80;21498;-88
2022/05/14 09:22:44;;;;;;;6.22;3.58;;;;;;;27.61;26.58;98315.83;1733318;82;21030;-85
2022/05/14 09:25:29;;;;;;;5.40;1.95;;;;;;;26.70;26.68;98302.00;1754455;80;21020;-88
2022/05/14 09:28:04;;;;;;;5.58;1.90;;;;;;;27.12;25.75;98305.85;1770477;80;21068;-85
2022/05/14 09:30:38;;;;;;;4.28;1.85;;;;;;;27.24;25.55;98300.00;1742707;80;21001;-85
2022/05/14 09:33:06;;;;;;;7.70;2.00;;;;;;;29.72;24.16;98290.38;1739923;81;21035;-88
2022/05/14 09:35:34;;;;;;;6.40;2.15;;;;;;;28.49;23.87;98294.53;1726741;80;21083;-88
2022/05/14 09:38:14;;;;;;;9.20;2.23;;;;;;;28.55;23.91;98288.79;1719189;81;21006;-84
2022/05/14 09:40:40;;;;;;;10.40;1.60;;;;;;;30.35;23.54;98282.30;1704679;82;21022;-88
2022/05/14 09:43:20;;;;;;;11.05;2.90;;;;;;;30.78;23.14;98283.53;1703247;80;21535;-88
2022/05/14 09:46:10;;;;;;;9.20;1.72;;;;;;;32.00;20.06;98292.01;1743408;80;21024;-88
2022/05/14 09:48:47;;;;;;;4.85;1.62;;;;;;;31.24;20.79;98271.27;1740082;81;21706;-88
2022/05/14 09:51:15;;;;;;;3.95;1.27;;;;;;;31.98;20.51;98274.83;1713734;83;28369;-88
2022/05/14 09:53:43;;;;;;;5.78;1.32;;;;;;;32.19;19.97;98283.59;1726051;80;20979;-85
2022/05/14 09:56:26;;;;;;;8.10;1.70;;;;;;;32.22;20.44;98279.97;1719974;82;21429;-89
2022/05/14 09:59:04;;;;;;;9.53;1.42;;;;;;;31.23;18.75;98276.67;1715370;80;21013;-88
2022/05/14 10:01:43;;;;;;;4.25;1.50;;;;;;;32.92;19.22;98271.72;1738869;82;21297;-85
2022/05/14 10:04:33;;;;;;;8.65;1.72;;;;;;;33.43;19.04;98268.36;1714537;80;21394;-89
2022/05/14 10:07:04;;;;;;;36.85;2.47;;;;;;;32.42;17.36;98265.34;1733015;82;21517;-84
2022/05/14 10:10:04;;;;;;;2.65;1.60;;;;;;;31.68;19.49;98268.48;1725625;80;21009;-88
2022/05/14 10:12:52;;;;;;;5.50;1.37;;;;;;;30.49;20.16;98254.27;1739010;82;21738;-87
2022/05/14 10:15:47;;;;;;;3.92;1.72;;;;;;;28.32;22.58;98262.02;1720782;80;21061;-87
2022/05/14 10:18:40;;;;;;;6.90;1.70;;;;;;;28.51;22.75;98262.87;1729584;80;21004;-85
2022/05/14 10:21:17;;;;;;;6.37;2.90;;;;;;;28.33;23.21;98259.44;1713482;82;21022;-88
2022/05/14 10:27:25;;;;;;;5.70;2.10;;;;;;;27.39;23.87;98263.37;1732078;82;21024;-87
2022/05/14 10:30:22;;;;;;;8.90;2.20;;;;;;;29.30;22.10;98256.27;1695772;82;21061;-85
2022/05/14 10:32:55;;;;;;;7.05;2.47;;;;;;;29.24;22.50;98260.68;1727101;81;21537;-84
2022/05/14 10:35:34;;;;;;;7.97;3.05;;;;;;;27.06;24.01;98262.09;1736477;80;21154;-88
2022/05/14 10:38:07;;;;;;;7.33;1.47;;;;;;;26.46;25.50;98260.23;1726211;81;21067;-88
2022/05/14 10:40:44;;;;;;;5.67;3.20;;;;;;;25.29;26.40;98251.81;1715618;80;21091;-88
2022/05/14 10:43:59;;;;;;;6.83;2.12;;;;;;;25.09;26.42;98256.40;1737089;82;21143;-88
2022/05/14 10:46:27;;;;;;;3.52;1.90;;;;;;;27.30;24.59;98248.99;1742871;81;21009;-84
2022/05/14 10:49:11;;;;;;;7.47;1.65;;;;;;;26.73;24.96;98247.03;1721779;82;21025;-88
2022/05/14 10:51:52;;;;;;;8.63;1.87;;;;;;;27.69;24.06;98240.98;1675355;82;21023;-85
2022/05/14 10:54:21;;;;;;;3.27;1.60;;;;;;;26.88;23.89;98244.61;1726298;80;21433;-88
2022/05/14 10:57:03;;;;;;;8.23;1.50;;;;;;;27.63;23.69;98242.48;1706167;82;21144;-85
2022/05/14 10:59:46;;;;;;;5.72;1.80;;;;;;;29.47;21.57;98237.33;1725990;80;21060;-88
2022/05/14 11:02:31;;;;;;;6.83;1.90;;;;;;;29.47;21.57;98237.33;1741276;81;21029;-85
2022/05/14 11:04:57;;;;;;;2.80;1.90;;;;;;;27.13;23.30;98242.09;1726419;82;21088;-85
2022/05/14 11:07:37;;;;;;;5.50;1.82;;;;;;;27.32;23.15;98236.09;1725226;82;21646;-85
2022/05/14 11:10:14;;;;;;;12.55;1.90;;;;;;;26.77;23.97;98236.77;1713084;80;21328;-88
2022/05/14 11:12:40;;;;;;;4.67;2.00;;;;;;;28.75;22.84;98227.91;1707439;82;21022;-85
2022/05/14 11:15:24;;;;;;;3.20;1.40;;;;;;;28.53;22.22;98229.23;1732745;80;20930;-88
2022/05/14 11:18:08;;;;;;;3.20;1.72;;;;;;;28.48;22.56;98232.42;1735085;81;21229;-88
2022/05/14 11:20:34;;;;;;;4.80;1.70;;;;;;;27.87;22.79;98231.94;1704989;82;21078;-85
2022/05/14 11:23:12;;;;;;;5.95;1.85;;;;;;;29.11;22.08;98231.56;1728131;82;21500;-85
2022/05/14 11:25:38;;;;;;;5.70;2.25;;;;;;;29.53;22.25;98229.39;1730073;82;21119;-85
2022/05/14 11:28:21;;;;;;;4.05;1.65;;;;;;;28.76;23.04;98226.71;1721885;82;21053;-88
2022/05/14 11:30:54;;;;;;;4.60;2.10;;;;;;;29.96;21.27;98220.92;1703321;82;21073;-89
2022/05/14 11:33:28;;;;;;;6.85;2.62;;;;;;;31.56;19.90;98219.20;1674175;83;21045;-85
2022/05/14 11:35:57;;;;;;;3.30;1.52;;;;;;;30.06;20.32;98224.27;1748246;82;21307;-85
2022/05/14 11:38:29;;;;;;;8.43;2.15;;;;;;;31.81;19.10;98224.59;1743968;81;21013;-84
2022/05/14 11:41:04;;;;;;;4.15;2.12;;;;;;;32.12;19.37;98224.81;1713621;82;21027;-89
2022/05/14 11:43:43;;;;;;;5.28;2.27;;;;;;;32.39;18.71;98223.53;1727169;80;21046;-85
2022/05/14 11:46:42;;;;;;;7.58;2.72;;;;;;;29.66;21.23;98218.62;1743348;82;21017;-88
2022/05/14 11:49:16;;;;;;;8.75;2.58;;;;;;;29.55;21.12;98217.22;1694038;81;21545;-85
2022/05/14 11:52:14;;;;;;;6.53;2.60;;;;;;;30.89;20.12;98222.72;1678996;85;21125;-85
2022/05/14 11:54:51;;;;;;;6.72;2.17;;;;;;;31.37;19.12;98216.39;1737897;80;21445;-86
2022/05/14 11:57:19;;;;;;;;;;;;;;;30.92;19.10;98223.89;1712866;82;21093;-85
2022/05/14 12:00:03;;;;;;;4.65;1.98;;;;;;;30.52;20.18;98219.92;1724880;80;20159;-89
2022/05/14 12:03:00;;;;;;;6.67;2.20;;;;;;;29.88;20.48;98224.33;1730963;82;21474;-85